createdAt,value
2018-08-17T00:00:25.976Z,90.50
2018-08-17T00:02:54.799Z,90.50
2018-08-17T00:05:23.876Z,90.50
2018-08-17T00:07:52.628Z,90.60
2018-08-17T00:10:21.874Z,90.60
2018-08-17T00:12:50.715Z,90.70
2018-08-17T00:15:19.987Z,90.70
2018-08-17T00:17:48.811Z,90.80
2018-08-17T00:20:17.805Z,90.90
2018-08-17T00:22:46.599Z,91.00
2018-08-17T00:25:15.380Z,91.20
2018-08-17T00:27:44.259Z,91.20
2018-08-17T00:30:13.155Z,91.30
2018-08-17T00:32:41.964Z,91.40
2018-08-17T00:35:10.830Z,91.50
2018-08-17T00:37:39.780Z,91.50
2018-08-17T00:40:08.564Z,91.70
2018-08-17T00:42:37.436Z,92.00
2018-08-17T00:45:06.842Z,91.80
2018-08-17T00:47:35.636Z,92.00
2018-08-17T00:50:05.399Z,92.10
2018-08-17T00:52:34.259Z,92.30
2018-08-17T00:55:03.239Z,92.40
2018-08-17T00:57:32.023Z,92.70
2018-08-17T01:00:00.923Z,93.00
2018-08-17T01:02:29.783Z,92.90
2018-08-17T01:04:58.658Z,93.10
2018-08-17T01:07:27.413Z,93.20
2018-08-17T01:09:56.267Z,93.40
2018-08-17T01:12:25.066Z,93.50
2018-08-17T01:14:53.848Z,93.80
2018-08-17T01:17:22.631Z,93.60
2018-08-17T01:19:51.495Z,93.60
2018-08-17T01:22:23.165Z,93.80
2018-08-17T01:24:52.123Z,93.90
2018-08-17T01:27:20.938Z,94.10
2018-08-17T01:29:49.733Z,94.10
2018-08-17T01:32:18.868Z,94.00
2018-08-17T01:34:47.981Z,94.00
2018-08-17T01:37:16.799Z,94.00
2018-08-17T01:39:45.592Z,94.00
2018-08-17T01:42:14.375Z,94.30
2018-08-17T01:44:43.243Z,94.40
2018-08-17T01:47:12.035Z,94.60
2018-08-17T01:49:40.836Z,94.90
2018-08-17T01:52:09.615Z,95.40
2018-08-17T01:54:38.456Z,95.90
2018-08-17T01:57:07.525Z,96.30
2018-08-17T01:59:36.292Z,96.10
2018-08-17T02:02:05.181Z,96.30
2018-08-17T02:04:34.131Z,96.40
2018-08-17T02:07:03.199Z,95.90
2018-08-17T02:09:32.064Z,96.70
2018-08-17T02:12:00.932Z,97.60
2018-08-17T02:14:29.787Z,97.90
2018-08-17T02:16:58.572Z,98.40
2018-08-17T02:19:27.355Z,98.70
2018-08-17T02:21:56.231Z,99.20
2018-08-17T02:24:25.137Z,99.50
2018-08-17T02:26:53.916Z,99.60
2018-08-17T02:29:23.016Z,99.90
2018-08-17T02:31:51.816Z,99.90
2018-08-17T02:34:20.705Z,99.90
2018-08-17T02:36:49.517Z,99.90
2018-08-17T02:39:18.343Z,99.90
2018-08-17T02:41:47.197Z,99.90
2018-08-17T02:44:16.083Z,99.90
2018-08-17T02:46:44.872Z,99.90
2018-08-17T02:49:13.676Z,99.90
2018-08-17T02:51:42.584Z,99.90
2018-08-17T02:54:11.382Z,99.90
2018-08-17T02:56:40.880Z,99.90
2018-08-17T02:59:09.651Z,99.90
2018-08-17T03:01:38.588Z,99.90
2018-08-17T03:04:07.452Z,99.90
2018-08-17T03:06:36.267Z,99.90
2018-08-17T03:09:07.719Z,99.90
2018-08-17T03:11:36.503Z,99.90
2018-08-17T03:14:05.835Z,99.90
2018-08-17T03:16:34.820Z,99.90
2018-08-17T03:19:03.644Z,99.90
2018-08-17T03:21:32.426Z,99.90
2018-08-17T03:24:02.430Z,99.90
2018-08-17T03:26:31.251Z,99.90
2018-08-17T03:29:00.072Z,99.90
2018-08-17T03:31:28.851Z,99.90
2018-08-17T03:33:57.646Z,99.90
2018-08-17T03:36:26.437Z,99.90
2018-08-17T03:38:55.323Z,99.90
2018-08-17T03:41:24.122Z,99.90
2018-08-17T03:43:52.939Z,99.90
2018-08-17T03:46:21.783Z,99.90
2018-08-17T03:48:50.656Z,99.90
2018-08-17T03:51:19.420Z,99.90
2018-08-17T03:53:48.264Z,99.90
2018-08-17T03:56:17.046Z,99.90
2018-08-17T03:58:45.851Z,99.90
2018-08-17T04:01:14.627Z,99.90
2018-08-17T04:03:43.519Z,99.90
2018-08-17T04:06:12.294Z,99.90
2018-08-17T04:08:41.079Z,99.90
2018-08-17T04:11:10.184Z,99.90
2018-08-17T04:13:39.043Z,99.90
2018-08-17T04:16:07.932Z,99.90
2018-08-17T04:18:36.719Z,99.90
2018-08-17T04:21:05.704Z,99.90
2018-08-17T04:23:34.651Z,99.90
2018-08-17T04:26:03.439Z,99.90
2018-08-17T04:28:32.220Z,99.90
2018-08-17T04:31:01.071Z,99.90
2018-08-17T04:33:29.915Z,99.90
2018-08-17T04:35:58.702Z,99.90
2018-08-17T04:38:27.462Z,99.90
2018-08-17T04:40:56.256Z,99.90
2018-08-17T04:43:25.628Z,99.90
2018-08-17T04:45:54.400Z,99.90
2018-08-17T04:48:23.179Z,99.90
2018-08-17T04:50:52.047Z,99.90
2018-08-17T04:53:20.808Z,99.90
2018-08-17T04:55:49.606Z,99.90
2018-08-17T04:58:18.393Z,99.90
2018-08-17T05:00:47.170Z,99.90
2018-08-17T05:03:16.048Z,99.90
2018-08-17T05:05:44.823Z,99.90
2018-08-17T05:08:13.582Z,99.90
2018-08-17T05:10:42.472Z,99.90
2018-08-17T05:13:11.300Z,99.90
2018-08-17T05:15:40.090Z,99.90
2018-08-17T05:18:08.903Z,99.90
2018-08-17T05:20:37.684Z,99.90
2018-08-17T05:23:06.464Z,99.90
2018-08-17T05:25:35.277Z,99.90
2018-08-17T05:28:04.305Z,99.90
2018-08-17T05:30:33.127Z,99.90
2018-08-17T05:33:02.062Z,99.90
2018-08-17T05:35:30.828Z,99.90
2018-08-17T05:38:01.939Z,99.90
2018-08-17T05:40:31.011Z,99.90
2018-08-17T05:42:59.798Z,99.90
2018-08-17T05:45:28.694Z,99.90
2018-08-17T05:47:57.500Z,99.90
2018-08-17T05:50:26.258Z,99.90
2018-08-17T05:52:55.051Z,99.90
2018-08-17T05:55:23.842Z,99.90
2018-08-17T05:57:52.623Z,99.90
2018-08-17T06:00:21.401Z,99.90
2018-08-17T06:02:50.822Z,99.90
2018-08-17T06:05:19.598Z,99.90
2018-08-17T06:07:48.409Z,99.90
2018-08-17T06:10:17.532Z,99.90
2018-08-17T06:12:46.330Z,99.90
2018-08-17T06:15:15.106Z,99.90
2018-08-17T06:17:43.903Z,99.90
2018-08-17T06:20:12.663Z,99.90
2018-08-17T06:22:41.479Z,99.90
2018-08-17T06:25:12.670Z,99.90
2018-08-17T06:27:41.888Z,99.90
2018-08-17T06:30:12.853Z,99.90
2018-08-17T06:32:41.804Z,99.90
2018-08-17T06:35:11.522Z,99.90
2018-08-17T06:37:41.400Z,99.90
2018-08-17T06:40:10.664Z,99.90
2018-08-17T06:42:39.476Z,99.90
2018-08-17T06:45:09.933Z,99.90
2018-08-17T06:47:38.732Z,99.90
2018-08-17T06:50:09.017Z,99.90
2018-08-17T06:52:38.419Z,99.90
2018-08-17T06:55:08.539Z,99.90
2018-08-17T06:57:37.780Z,99.90
2018-08-17T07:00:09.675Z,99.90
2018-08-17T07:02:38.479Z,99.90
2018-08-17T07:05:07.560Z,99.90
2018-08-17T07:07:36.347Z,99.90
2018-08-17T07:10:05.848Z,99.90
2018-08-17T07:12:34.608Z,99.90
2018-08-17T07:15:03.781Z,99.90
2018-08-17T07:17:32.560Z,99.90
2018-08-17T07:20:01.366Z,99.90
2018-08-17T07:22:32.351Z,99.90
2018-08-17T07:25:01.130Z,99.90
2018-08-17T07:27:29.952Z,99.90
2018-08-17T07:29:59.576Z,99.90
2018-08-17T07:32:28.759Z,99.90
2018-08-17T07:34:57.576Z,99.90
2018-08-17T07:37:26.345Z,99.90
2018-08-17T07:39:55.121Z,99.90
2018-08-17T07:42:23.916Z,99.90
2018-08-17T07:44:52.711Z,99.90
2018-08-17T07:47:21.519Z,99.90
2018-08-17T07:49:50.308Z,99.90
2018-08-17T07:52:19.089Z,99.90
2018-08-17T07:54:47.867Z,99.90
2018-08-17T07:57:16.639Z,99.90
2018-08-17T07:59:45.452Z,99.90
2018-08-17T08:02:14.248Z,99.90
2018-08-17T08:04:43.144Z,99.90
2018-08-17T08:07:12.003Z,99.90
2018-08-17T08:09:40.794Z,99.90
2018-08-17T08:12:09.584Z,99.90
2018-08-17T08:14:38.421Z,99.90
2018-08-17T08:17:07.188Z,99.90
2018-08-17T08:19:35.968Z,99.90
2018-08-17T08:22:04.777Z,99.90
2018-08-17T08:24:36.835Z,99.90
2018-08-17T08:27:06.663Z,99.20
2018-08-17T08:29:35.451Z,97.40
2018-08-17T08:32:04.280Z,98.10
2018-08-17T08:34:33.067Z,94.50
2018-08-17T08:37:01.855Z,93.20
2018-08-17T08:39:30.647Z,92.20
2018-08-17T08:41:59.436Z,92.20
2018-08-17T08:44:28.219Z,92.70
2018-08-17T08:46:56.992Z,92.90
2018-08-17T08:49:25.771Z,92.10
2018-08-17T08:51:54.570Z,92.10
2018-08-17T08:54:23.534Z,92.70
2018-08-17T08:56:52.311Z,93.00
2018-08-17T08:59:21.087Z,93.30
2018-08-17T09:01:49.960Z,92.80
2018-08-17T09:04:18.829Z,93.00
2018-08-17T09:06:47.597Z,92.60
2018-08-17T09:09:16.408Z,93.00
2018-08-17T09:11:45.196Z,92.70
2018-08-17T09:14:13.981Z,92.70
2018-08-17T09:16:42.775Z,92.00
2018-08-17T09:19:11.568Z,92.50
2018-08-17T09:21:40.331Z,91.60
2018-08-17T09:24:09.120Z,91.00
2018-08-17T09:26:37.915Z,92.90
2018-08-17T09:29:06.761Z,92.40
2018-08-17T09:31:35.480Z,92.00
2018-08-17T09:34:04.270Z,90.20
2018-08-17T09:36:33.055Z,88.90
2018-08-17T09:39:01.842Z,90.80
2018-08-17T09:41:30.672Z,90.10
2018-08-17T09:43:59.464Z,90.40
2018-08-17T09:46:28.249Z,85.90
2018-08-17T09:48:57.010Z,83.80
2018-08-17T09:51:25.901Z,90.50
2018-08-17T09:53:54.636Z,87.80
2018-08-17T09:56:23.405Z,90.20
2018-08-17T09:58:52.192Z,86.50
2018-08-17T10:01:26.843Z,84.10
2018-08-17T10:04:01.033Z,79.50
2018-08-17T10:06:35.935Z,81.70
2018-08-17T10:09:11.204Z,79.10
2018-08-17T10:11:39.992Z,79.90
2018-08-17T10:14:08.836Z,82.00
2018-08-17T10:16:37.615Z,74.20
2018-08-17T10:19:06.402Z,76.50
2018-08-17T10:21:39.746Z,73.70
2018-08-17T10:24:08.330Z,76.60
2018-08-17T10:26:37.102Z,77.20
2018-08-17T10:29:05.876Z,72.40
2018-08-17T10:31:34.657Z,67.80
2018-08-17T10:34:03.552Z,65.70
2018-08-17T10:36:32.224Z,67.20
2018-08-17T10:39:01.027Z,74.50
2018-08-17T10:41:29.813Z,64.30
2018-08-17T10:43:58.583Z,64.40
2018-08-17T10:46:27.407Z,65.50
2018-08-17T10:48:56.240Z,65.00
2018-08-17T10:51:25.463Z,64.30
2018-08-17T10:53:54.260Z,64.30
2018-08-17T10:56:23.547Z,64.60
2018-08-17T10:58:52.316Z,67.00
2018-08-17T11:01:21.105Z,64.00
2018-08-17T11:03:49.892Z,63.70
2018-08-17T11:06:18.687Z,66.10
2018-08-17T11:08:47.472Z,65.00
2018-08-17T11:11:16.269Z,62.60
2018-08-17T11:13:45.059Z,63.30
2018-08-17T11:16:13.856Z,65.20
2018-08-17T11:18:42.634Z,62.20
2018-08-17T11:21:11.485Z,64.90
2018-08-17T11:23:40.270Z,63.70
2018-08-17T11:26:09.064Z,62.10
2018-08-17T11:28:37.856Z,59.90
2018-08-17T11:31:06.661Z,63.50
2018-08-17T11:33:35.432Z,62.10
2018-08-17T11:36:04.227Z,65.10
2018-08-17T11:38:33.000Z,67.40
2018-08-17T11:41:01.778Z,69.70
2018-08-17T11:43:30.542Z,71.10
2018-08-17T11:45:59.331Z,73.10
2018-08-17T11:48:33.578Z,74.40
2018-08-17T11:51:02.400Z,84.20
2018-08-17T11:53:31.260Z,92.00
2018-08-17T11:55:59.991Z,93.50
2018-08-17T11:58:29.091Z,96.90
2018-08-17T12:00:57.907Z,99.90
2018-08-17T12:03:26.676Z,99.90
2018-08-17T12:05:55.455Z,99.90
2018-08-17T12:08:24.250Z,99.90
2018-08-17T12:10:59.272Z,99.90
2018-08-17T12:13:28.060Z,99.90
2018-08-17T12:15:57.512Z,99.90
2018-08-17T12:18:26.570Z,99.90
2018-08-17T12:20:55.897Z,99.90
2018-08-17T12:23:24.704Z,99.90
2018-08-17T12:25:56.083Z,99.90
2018-08-17T12:28:25.979Z,99.90
2018-08-17T12:30:54.779Z,99.90
2018-08-17T12:33:23.553Z,99.90
2018-08-17T12:35:52.431Z,99.90
2018-08-17T12:38:21.215Z,99.90
2018-08-17T12:40:54.899Z,99.90
2018-08-17T12:43:30.087Z,99.90
2018-08-17T12:45:58.894Z,99.90
2018-08-17T12:48:27.671Z,99.90
2018-08-17T12:51:01.903Z,99.90
2018-08-17T12:53:30.887Z,99.90
2018-08-17T12:55:59.707Z,99.90
2018-08-17T12:58:28.491Z,99.90
2018-08-17T13:00:57.287Z,99.90
2018-08-17T13:03:26.067Z,99.90
2018-08-17T13:05:54.854Z,99.90
2018-08-17T13:08:23.644Z,99.90
2018-08-17T13:10:52.462Z,99.90
2018-08-17T13:13:21.203Z,99.90
2018-08-17T13:15:55.376Z,99.90
2018-08-17T13:18:24.536Z,99.90
2018-08-17T13:20:53.359Z,99.90
2018-08-17T13:23:22.359Z,99.90
2018-08-17T13:25:51.147Z,99.90
2018-08-17T13:28:19.999Z,99.90
2018-08-17T13:30:48.767Z,99.90
2018-08-17T13:33:17.566Z,99.90
2018-08-17T13:35:46.316Z,99.90
2018-08-17T13:38:15.144Z,99.90
2018-08-17T13:40:43.904Z,99.90
2018-08-17T13:43:12.684Z,99.90
2018-08-17T13:45:41.451Z,99.90
2018-08-17T13:48:10.239Z,99.90
2018-08-17T13:50:39.286Z,99.90
2018-08-17T13:53:08.066Z,99.90
2018-08-17T13:55:36.840Z,99.90
2018-08-17T13:58:05.787Z,99.90
2018-08-17T14:00:34.554Z,99.90
2018-08-17T14:03:03.353Z,99.90
2018-08-17T14:05:32.125Z,99.90
2018-08-17T14:08:00.908Z,99.90
2018-08-17T14:10:29.684Z,99.90
2018-08-17T14:12:58.469Z,99.90
2018-08-17T14:15:27.271Z,99.90
2018-08-17T14:17:56.035Z,99.90
2018-08-17T14:20:24.819Z,99.90
2018-08-17T14:22:53.606Z,99.90
2018-08-17T14:25:22.385Z,99.90
2018-08-17T14:27:51.168Z,99.90
2018-08-17T14:30:19.936Z,99.90
2018-08-17T14:32:48.711Z,99.90
2018-08-17T14:35:17.508Z,99.90
2018-08-17T14:37:46.256Z,99.90
2018-08-17T14:40:15.043Z,99.90
2018-08-17T14:42:43.815Z,99.90
2018-08-17T14:45:12.642Z,99.90
2018-08-17T14:47:41.652Z,99.90
2018-08-17T14:50:12.347Z,99.90
2018-08-17T14:52:41.396Z,99.90
2018-08-17T14:55:11.000Z,99.90
2018-08-17T14:57:39.807Z,99.90
2018-08-17T15:00:10.909Z,99.90
2018-08-17T15:02:39.735Z,99.90
2018-08-17T15:05:10.304Z,99.90
2018-08-17T15:07:39.114Z,99.90
2018-08-17T15:10:09.312Z,99.90
2018-08-17T15:12:38.131Z,99.90
2018-08-17T15:15:07.187Z,99.90
2018-08-17T15:17:38.935Z,99.90
2018-08-17T15:20:09.591Z,99.90
2018-08-17T15:22:38.592Z,99.90
2018-08-17T15:25:08.119Z,99.90
2018-08-17T15:27:37.327Z,99.90
2018-08-17T15:30:07.844Z,99.90
2018-08-17T15:32:36.896Z,99.90
2018-08-17T15:35:05.703Z,99.90
2018-08-17T15:37:34.493Z,99.90
2018-08-17T15:40:03.456Z,99.90
2018-08-17T15:42:32.312Z,99.90
2018-08-17T15:45:01.070Z,99.90
2018-08-17T15:47:32.684Z,99.90
2018-08-17T15:50:06.373Z,99.90
2018-08-17T15:52:35.222Z,99.90
2018-08-17T15:55:04.212Z,99.90
2018-08-17T15:57:33.101Z,99.90
2018-08-17T16:00:01.833Z,99.90
2018-08-17T16:02:31.153Z,99.90
2018-08-17T16:05:00.408Z,99.90
2018-08-17T16:07:29.648Z,99.90
2018-08-17T16:09:58.888Z,99.90
2018-08-17T16:12:27.660Z,99.90
2018-08-17T16:14:56.428Z,99.90
2018-08-17T16:17:25.224Z,99.90
2018-08-17T16:19:53.983Z,99.90
2018-08-17T16:22:22.803Z,99.90
2018-08-17T16:24:51.640Z,99.90
2018-08-17T16:27:20.355Z,99.90
2018-08-17T16:29:50.191Z,99.90
2018-08-17T16:32:18.979Z,99.90
2018-08-17T16:34:47.968Z,99.90
2018-08-17T16:37:16.852Z,99.90
2018-08-17T16:39:50.743Z,99.90
2018-08-17T16:42:23.861Z,99.90
2018-08-17T16:44:52.819Z,99.90
2018-08-17T16:47:21.576Z,99.90
2018-08-17T16:49:50.390Z,99.90
2018-08-17T16:52:19.270Z,99.90
2018-08-17T16:54:49.464Z,99.90
2018-08-17T16:57:18.603Z,99.90
2018-08-17T16:59:47.519Z,99.90
2018-08-17T17:02:16.329Z,99.90
2018-08-17T17:04:45.128Z,99.90
2018-08-17T17:07:13.988Z,99.90
2018-08-17T17:09:42.774Z,99.90
2018-08-17T17:12:18.616Z,99.90
2018-08-17T17:14:47.523Z,99.90
2018-08-17T17:17:16.833Z,99.90
2018-08-17T17:19:45.642Z,99.90
2018-08-17T17:22:14.429Z,99.90
2018-08-17T17:24:43.223Z,99.90
2018-08-17T17:27:12.033Z,99.90
2018-08-17T17:29:40.937Z,99.90
2018-08-17T17:32:09.780Z,99.90
2018-08-17T17:34:38.645Z,99.90
2018-08-17T17:37:07.463Z,99.90
2018-08-17T17:39:36.269Z,99.90
2018-08-17T17:42:05.135Z,99.90
2018-08-17T17:44:33.936Z,99.90
2018-08-17T17:47:02.720Z,99.90
2018-08-17T17:49:31.598Z,99.90
2018-08-17T17:52:00.358Z,99.90
2018-08-17T17:54:29.187Z,99.90
2018-08-17T17:57:08.576Z,99.90
2018-08-17T17:59:44.484Z,99.90
2018-08-17T18:02:13.253Z,99.90
2018-08-17T18:04:42.259Z,99.90
2018-08-17T18:07:12.937Z,99.90
2018-08-17T18:09:41.735Z,99.90
2018-08-17T18:12:11.087Z,99.90
2018-08-17T18:14:39.987Z,99.90
2018-08-17T18:17:11.901Z,99.90
2018-08-17T18:19:40.940Z,99.90
2018-08-17T18:22:13.028Z,99.90
2018-08-17T18:24:41.833Z,99.90
2018-08-17T18:27:10.619Z,99.90
2018-08-17T18:29:45.039Z,99.90
2018-08-17T18:32:13.836Z,99.90
2018-08-17T18:34:42.664Z,99.90
2018-08-17T18:37:11.541Z,99.90
2018-08-17T18:39:40.329Z,99.90
2018-08-17T18:42:09.160Z,99.90
2018-08-17T18:44:37.931Z,99.90
2018-08-17T18:47:09.182Z,99.90
2018-08-17T18:49:38.000Z,99.90
2018-08-17T18:52:06.791Z,99.90
2018-08-17T18:54:40.157Z,99.90
2018-08-17T18:57:08.970Z,99.90
2018-08-17T18:59:37.770Z,99.90
2018-08-17T19:02:06.559Z,99.90
2018-08-17T19:04:35.396Z,99.90
2018-08-17T19:07:04.219Z,99.90
2018-08-17T19:09:33.072Z,99.90
2018-08-17T19:12:01.969Z,99.90
2018-08-17T19:14:30.770Z,99.90
2018-08-17T19:16:59.590Z,99.90
2018-08-17T19:19:28.435Z,99.90
2018-08-17T19:21:57.336Z,99.90
2018-08-17T19:24:26.140Z,99.90
2018-08-17T19:26:54.922Z,99.90
2018-08-17T19:29:23.892Z,99.90
2018-08-17T19:31:58.032Z,99.90
2018-08-17T19:34:29.555Z,99.90
2018-08-17T19:36:58.365Z,99.90
2018-08-17T19:39:31.505Z,99.90
2018-08-17T19:42:00.398Z,99.90
2018-08-17T19:44:29.515Z,99.90
2018-08-17T19:47:00.613Z,99.90
2018-08-17T19:49:29.415Z,99.90
2018-08-17T19:51:59.191Z,99.90
2018-08-17T19:54:29.592Z,99.90
2018-08-17T19:56:58.412Z,99.90
2018-08-17T19:59:27.223Z,99.90
2018-08-17T20:01:56.124Z,99.90
2018-08-17T20:04:26.176Z,99.90
2018-08-17T20:06:55.588Z,99.90
2018-08-17T20:09:39.741Z,99.90
2018-08-17T20:12:08.618Z,99.90
2018-08-17T20:14:37.536Z,99.90
2018-08-17T20:17:06.533Z,99.90
2018-08-17T20:19:41.735Z,99.90
2018-08-17T20:22:19.924Z,99.90
2018-08-17T20:24:48.760Z,99.90
2018-08-17T20:27:19.145Z,99.90
2018-08-17T20:29:48.015Z,99.90
2018-08-17T20:32:16.885Z,99.90
2018-08-17T20:34:47.836Z,99.90
2018-08-17T20:37:17.560Z,99.90
2018-08-17T20:39:48.731Z,99.90
2018-08-17T20:42:17.631Z,99.90
2018-08-17T20:44:48.744Z,99.90
2018-08-17T20:47:17.598Z,99.90
2018-08-17T20:49:47.424Z,99.90
2018-08-17T20:52:16.293Z,99.90
2018-08-17T20:54:45.091Z,99.90
2018-08-17T20:57:14.045Z,99.90
2018-08-17T20:59:42.925Z,99.90
2018-08-17T21:02:11.859Z,99.90
2018-08-17T21:04:40.669Z,99.90
2018-08-17T21:07:09.468Z,99.90
2018-08-17T21:09:38.276Z,99.90
2018-08-17T21:12:07.322Z,99.90
2018-08-17T21:14:36.083Z,99.90
2018-08-17T21:17:04.883Z,99.90
2018-08-17T21:19:37.938Z,99.90
2018-08-17T21:22:06.780Z,99.90
2018-08-17T21:24:35.609Z,99.90
2018-08-17T21:27:04.555Z,99.90
2018-08-17T21:29:33.446Z,99.90
2018-08-17T21:32:02.222Z,99.90
2018-08-17T21:34:31.454Z,99.90
2018-08-17T21:37:00.264Z,99.90
2018-08-17T21:39:34.139Z,99.90
2018-08-17T21:42:07.540Z,99.90
2018-08-17T21:44:38.052Z,99.90
2018-08-17T21:47:07.958Z,99.90
2018-08-17T21:49:36.857Z,99.90
2018-08-17T21:52:08.615Z,99.90
2018-08-17T21:54:37.483Z,99.90
2018-08-17T21:57:06.334Z,99.90
2018-08-17T21:59:40.508Z,99.90
2018-08-17T22:02:10.374Z,99.90
2018-08-17T22:04:39.176Z,99.90
2018-08-17T22:07:11.736Z,99.90
2018-08-17T22:09:41.920Z,99.90
2018-08-17T22:12:11.600Z,99.90
2018-08-17T22:14:41.314Z,99.90
2018-08-17T22:17:21.265Z,99.90
2018-08-17T22:19:50.172Z,99.90
2018-08-17T22:22:19.085Z,99.90
2018-08-17T22:24:52.134Z,99.90
2018-08-17T22:27:21.588Z,99.90
2018-08-17T22:29:51.792Z,99.90
2018-08-17T22:32:21.100Z,99.90
2018-08-17T22:34:50.348Z,99.90
2018-08-17T22:37:19.212Z,99.90
2018-08-17T22:39:48.151Z,99.90
2018-08-17T22:42:19.260Z,99.90
2018-08-17T22:44:48.321Z,99.90
2018-08-17T22:47:19.977Z,99.90
2018-08-17T22:49:49.476Z,99.90
2018-08-17T22:52:18.287Z,99.90
2018-08-17T22:54:52.411Z,99.90
2018-08-17T22:57:21.396Z,99.90
2018-08-17T23:00:06.918Z,99.90
2018-08-17T23:02:35.707Z,99.90
2018-08-17T23:05:05.139Z,99.90
2018-08-17T23:07:33.975Z,99.90
2018-08-17T23:10:02.975Z,99.90
2018-08-17T23:12:31.868Z,99.90
2018-08-17T23:15:00.657Z,99.90
2018-08-17T23:17:30.288Z,99.90
2018-08-17T23:19:59.588Z,99.90
2018-08-17T23:22:28.628Z,99.90
2018-08-17T23:24:57.437Z,99.90
2018-08-17T23:27:26.231Z,99.90
2018-08-17T23:29:55.021Z,99.90
2018-08-17T23:32:23.955Z,99.90
2018-08-17T23:34:52.792Z,99.90
2018-08-17T23:37:21.579Z,99.90
2018-08-17T23:39:50.370Z,99.90
2018-08-17T23:42:19.188Z,99.90
2018-08-17T23:44:47.974Z,99.90
2018-08-17T23:47:16.903Z,99.90
2018-08-17T23:49:45.649Z,99.90
2018-08-17T23:52:14.527Z,99.90
2018-08-17T23:54:43.332Z,99.90
2018-08-17T23:57:12.227Z,99.90
2018-08-17T23:59:41.036Z,99.90
